Merlo, Argentina
Current Conditions -  °F | °C
As of 5:00 PM on Sunday 21 Dec 2014 (Local Time) from SAOC Reporting Station
Broken Clouds Broken Clouds  
Wind Chill: 64°   Ceiling: 2500
Heat Index: 64°   Visibility: 6mi
Dew Point: 37°   Wind: 9mph
Humidity: 37%   Direction: 230°SW
Pressure: 29.91"   Gusts: NA
Location:  32.35°S, 65.03°W
Report Text: SAOC 212000Z 23008KT 9999 BKN025 SCT04018/03 Q1013
Loading
Personal Weather Stations






























Interactive Weather Map New forecast layout! Learn more

10-Day Weather Forecast

Advertisements
Track Severe Weather on mobile